createdAt,value
2019-03-08T00:00:23.785Z,8.40
2019-03-08T00:02:52.342Z,8.40
2019-03-08T00:05:21.291Z,8.40
2019-03-08T00:07:49.953Z,8.40
2019-03-08T00:10:18.401Z,8.40
2019-03-08T00:12:46.830Z,8.40
2019-03-08T00:15:16.276Z,8.30
2019-03-08T00:17:44.700Z,8.20
2019-03-08T00:20:13.634Z,8.10
2019-03-08T00:22:42.073Z,8.00
2019-03-08T00:25:11.853Z,7.90
2019-03-08T00:27:40.352Z,7.90
2019-03-08T00:30:11.099Z,7.90
2019-03-08T00:32:39.516Z,7.80
2019-03-08T00:35:09.396Z,7.80
2019-03-08T00:37:38.067Z,7.80
2019-03-08T00:40:12.968Z,7.80
2019-03-08T00:42:41.458Z,7.80
2019-03-08T00:45:12.743Z,7.70
2019-03-08T00:47:41.229Z,7.60
2019-03-08T00:50:10.375Z,7.70
2019-03-08T00:52:38.869Z,7.50
2019-03-08T00:55:09.661Z,7.60
2019-03-08T00:57:38.072Z,7.60
2019-03-08T01:00:20.497Z,7.50
2019-03-08T01:02:49.068Z,7.40
2019-03-08T01:05:18.139Z,7.40
2019-03-08T01:07:46.904Z,7.40
2019-03-08T01:10:18.332Z,7.40
2019-03-08T01:12:47.010Z,7.30
2019-03-08T01:15:18.473Z,7.30
2019-03-08T01:17:47.240Z,7.20
2019-03-08T01:20:17.704Z,7.20
2019-03-08T01:22:46.418Z,7.20
2019-03-08T01:25:15.140Z,7.20
2019-03-08T01:28:04.957Z,7.20
2019-03-08T01:30:34.537Z,7.20
2019-03-08T01:33:02.953Z,7.20
2019-03-08T01:35:31.637Z,7.20
2019-03-08T01:38:00.070Z,7.20
2019-03-08T01:40:28.639Z,7.10
2019-03-08T01:42:57.222Z,7.10
2019-03-08T01:45:25.645Z,7.10
2019-03-08T01:47:54.084Z,7.00
2019-03-08T01:50:22.501Z,7.00
2019-03-08T01:52:50.941Z,7.00
2019-03-08T01:55:19.801Z,7.00
2019-03-08T01:57:48.556Z,6.90
2019-03-08T02:00:19.386Z,6.90
2019-03-08T02:02:47.892Z,6.90
2019-03-08T02:05:17.056Z,7.00
2019-03-08T02:07:45.832Z,6.90
2019-03-08T02:10:15.895Z,7.00
2019-03-08T02:12:44.652Z,6.90
2019-03-08T02:15:15.488Z,6.90
2019-03-08T02:17:44.171Z,6.80
2019-03-08T02:20:21.679Z,6.80
2019-03-08T02:22:50.106Z,6.80
2019-03-08T02:25:18.532Z,6.80
2019-03-08T02:27:46.968Z,6.80
2019-03-08T02:30:17.434Z,6.70
2019-03-08T02:32:46.557Z,6.70
2019-03-08T02:35:18.271Z,6.70
2019-03-08T02:37:46.948Z,6.70
2019-03-08T02:40:27.170Z,6.70
2019-03-08T02:42:55.674Z,6.70
2019-03-08T02:45:24.091Z,6.70
2019-03-08T02:47:52.526Z,6.70
2019-03-08T02:50:20.957Z,6.70
2019-03-08T02:52:49.417Z,6.70
2019-03-08T02:55:18.091Z,6.70
2019-03-08T02:57:47.097Z,6.70
2019-03-08T03:00:17.659Z,6.70
2019-03-08T03:02:46.173Z,6.60
2019-03-08T03:05:14.759Z,6.70
2019-03-08T03:07:43.264Z,6.70
2019-03-08T03:10:13.916Z,6.70
2019-03-08T03:12:42.354Z,6.60
2019-03-08T03:15:13.085Z,6.70
2019-03-08T03:17:41.529Z,6.70
2019-03-08T03:20:15.085Z,6.60
2019-03-08T03:22:43.529Z,6.60
2019-03-08T03:25:14.938Z,6.60
2019-03-08T03:27:43.356Z,6.60
2019-03-08T03:30:16.638Z,6.60
2019-03-08T03:32:45.057Z,6.70
2019-03-08T03:35:13.484Z,6.70
2019-03-08T03:37:41.900Z,6.60
2019-03-08T03:40:12.867Z,6.60
2019-03-08T03:42:41.312Z,6.70
2019-03-08T03:45:12.117Z,6.70
2019-03-08T03:47:40.542Z,6.70
2019-03-08T03:50:11.291Z,6.70
2019-03-08T03:52:40.306Z,6.70
2019-03-08T03:55:14.712Z,6.70
2019-03-08T03:57:43.498Z,6.70
2019-03-08T04:00:22.969Z,6.70
2019-03-08T04:02:51.570Z,6.70
2019-03-08T04:05:20.081Z,6.70
2019-03-08T04:07:48.572Z,6.70
2019-03-08T04:10:17.651Z,6.70
2019-03-08T04:12:46.300Z,6.70
2019-03-08T04:15:17.238Z,6.70
2019-03-08T04:17:46.141Z,6.70
2019-03-08T04:20:19.592Z,6.70
2019-03-08T04:22:48.081Z,6.70
2019-03-08T04:25:16.977Z,6.70
2019-03-08T04:27:45.490Z,6.70
2019-03-08T04:30:20.966Z,6.80
2019-03-08T04:32:49.392Z,6.80
2019-03-08T04:35:17.895Z,6.80
2019-03-08T04:37:46.329Z,6.70
2019-03-08T04:40:15.376Z,6.80
2019-03-08T04:42:43.866Z,6.70
2019-03-08T04:45:14.634Z,6.80
2019-03-08T04:47:43.126Z,6.80
2019-03-08T04:50:13.275Z,6.70
2019-03-08T04:52:41.872Z,6.70
2019-03-08T04:55:18.891Z,6.70
2019-03-08T04:57:47.967Z,6.70
2019-03-08T05:00:18.507Z,6.80
2019-03-08T05:02:47.024Z,6.70
2019-03-08T05:05:15.581Z,6.70
2019-03-08T05:07:43.999Z,6.70
2019-03-08T05:10:16.571Z,6.90
2019-03-08T05:12:45.052Z,6.80
2019-03-08T05:15:13.993Z,6.80
2019-03-08T05:17:42.485Z,6.80
2019-03-08T05:20:11.565Z,6.70
2019-03-08T05:22:39.996Z,6.70
2019-03-08T05:25:11.133Z,6.70
2019-03-08T05:27:39.562Z,6.70
2019-03-08T05:30:13.713Z,6.70
2019-03-08T05:32:42.144Z,6.70
2019-03-08T05:35:11.101Z,6.70
2019-03-08T05:37:39.539Z,6.70
2019-03-08T05:40:13.371Z,6.60
2019-03-08T05:42:41.869Z,6.60
2019-03-08T05:45:12.233Z,6.60
2019-03-08T05:47:40.679Z,6.60
2019-03-08T05:50:10.808Z,6.60
2019-03-08T05:52:39.241Z,6.60
2019-03-08T05:55:09.501Z,6.60
2019-03-08T05:57:37.941Z,6.60
2019-03-08T06:00:11.716Z,6.60
2019-03-08T06:02:40.257Z,6.60
2019-03-08T06:05:08.810Z,6.50
2019-03-08T06:07:37.814Z,6.50
2019-03-08T06:10:24.304Z,6.50
2019-03-08T06:12:52.748Z,6.50
2019-03-08T06:15:21.197Z,6.40
2019-03-08T06:17:49.632Z,6.40
2019-03-08T06:20:18.045Z,6.40
2019-03-08T06:22:46.645Z,6.40
2019-03-08T06:25:15.101Z,6.40
2019-03-08T06:27:43.578Z,6.30
2019-03-08T06:30:16.127Z,6.30
2019-03-08T06:32:44.566Z,6.30
2019-03-08T06:35:13.760Z,6.20
2019-03-08T06:37:42.669Z,6.10
2019-03-08T06:40:14.053Z,6.10
2019-03-08T06:42:42.488Z,6.10
2019-03-08T06:45:13.985Z,6.10
2019-03-08T06:47:42.888Z,6.10
2019-03-08T06:50:15.578Z,7.20
2019-03-08T06:52:45.185Z,7.90
2019-03-08T06:55:15.485Z,7.80
2019-03-08T06:57:45.301Z,7.90
2019-03-08T07:00:18.590Z,7.90
2019-03-08T07:02:47.485Z,7.40
2019-03-08T07:05:17.625Z,6.40
2019-03-08T07:07:46.276Z,6.10
2019-03-08T07:10:16.316Z,6.10
2019-03-08T07:12:44.811Z,6.10
2019-03-08T07:15:13.434Z,6.10
2019-03-08T07:17:41.975Z,6.10
2019-03-08T07:20:12.938Z,6.00
2019-03-08T07:22:43.182Z,6.00
2019-03-08T07:25:29.831Z,5.90
2019-03-08T07:28:06.174Z,5.90
2019-03-08T07:30:39.375Z,5.90
2019-03-08T07:33:12.508Z,5.80
2019-03-08T07:35:51.624Z,5.70
2019-03-08T07:38:21.705Z,5.60
2019-03-08T07:40:54.203Z,5.50
2019-03-08T07:43:24.273Z,5.50
2019-03-08T07:46:00.425Z,5.60
2019-03-08T07:48:30.782Z,5.60
2019-03-08T07:51:06.799Z,5.60
2019-03-08T07:53:48.634Z,5.60
2019-03-08T07:56:18.704Z,5.70
2019-03-08T07:58:49.049Z,5.70
2019-03-08T08:01:21.953Z,5.80
2019-03-08T08:03:54.970Z,5.80
2019-03-08T08:06:27.994Z,5.90
2019-03-08T08:09:10.189Z,6.00
2019-03-08T08:11:46.088Z,6.00
2019-03-08T08:14:25.239Z,6.10
2019-03-08T08:16:58.064Z,6.10
2019-03-08T08:19:28.124Z,6.10
2019-03-08T08:22:04.255Z,6.20
2019-03-08T08:24:37.254Z,6.20
2019-03-08T08:27:07.338Z,6.20
2019-03-08T08:29:40.161Z,6.10
2019-03-08T08:32:20.068Z,6.10
2019-03-08T08:34:55.845Z,6.10
2019-03-08T08:37:42.321Z,6.10
2019-03-08T08:40:21.368Z,6.10
2019-03-08T08:42:51.471Z,5.90
2019-03-08T08:45:38.098Z,5.80
2019-03-08T08:48:15.096Z,5.90
2019-03-08T08:50:52.057Z,6.00
2019-03-08T08:53:34.049Z,6.10
2019-03-08T08:56:09.919Z,6.20
2019-03-08T08:58:39.968Z,6.30
2019-03-08T09:01:18.957Z,6.40
2019-03-08T09:03:58.624Z,6.30
2019-03-08T09:06:31.621Z,6.40
2019-03-08T09:09:18.037Z,6.60
2019-03-08T09:12:04.392Z,6.60
2019-03-08T09:14:37.492Z,6.70
2019-03-08T09:17:16.493Z,6.80
2019-03-08T09:19:55.537Z,6.90
2019-03-08T09:22:31.588Z,6.90
2019-03-08T09:25:01.661Z,6.90
2019-03-08T09:27:34.912Z,6.80
2019-03-08T09:30:11.147Z,6.90
2019-03-08T09:32:41.301Z,6.90
2019-03-08T09:35:17.307Z,7.00
2019-03-08T09:37:50.116Z,7.00
2019-03-08T09:40:20.703Z,7.00
2019-03-08T09:42:50.841Z,7.00
2019-03-08T09:45:36.753Z,7.00
2019-03-08T09:48:19.009Z,7.00
2019-03-08T09:50:49.072Z,6.90
2019-03-08T09:53:19.149Z,7.00
2019-03-08T09:56:04.398Z,6.90
2019-03-08T09:58:37.234Z,7.00
2019-03-08T10:01:23.141Z,7.10
2019-03-08T10:03:53.230Z,7.00
2019-03-08T10:06:23.381Z,7.10
2019-03-08T10:08:53.661Z,7.20
2019-03-08T10:11:23.749Z,7.30
2019-03-08T10:13:53.832Z,7.20
2019-03-08T10:16:24.013Z,7.20
2019-03-08T10:19:00.065Z,7.20
2019-03-08T10:21:36.144Z,7.10
2019-03-08T10:24:08.942Z,7.00
2019-03-08T10:26:44.849Z,6.80
2019-03-08T10:29:17.679Z,6.90
2019-03-08T10:31:48.221Z,6.90
2019-03-08T10:34:26.981Z,6.90
2019-03-08T10:37:05.961Z,7.00
2019-03-08T10:39:39.000Z,7.00
2019-03-08T10:42:09.337Z,7.10
2019-03-08T10:44:54.361Z,7.40
2019-03-08T10:47:24.477Z,7.50
2019-03-08T10:49:57.506Z,7.70
2019-03-08T10:52:42.645Z,7.70
2019-03-08T10:55:28.964Z,7.70
2019-03-08T10:58:10.985Z,7.70
2019-03-08T11:00:41.122Z,7.70
2019-03-08T11:03:14.167Z,7.70
2019-03-08T11:05:56.073Z,7.60
2019-03-08T11:08:29.695Z,7.60
2019-03-08T11:11:10.113Z,7.60
2019-03-08T11:13:46.153Z,7.60
2019-03-08T11:16:32.450Z,7.90
2019-03-08T11:19:08.819Z,7.80
2019-03-08T11:21:37.074Z,7.90
2019-03-08T11:24:13.214Z,7.90
2019-03-08T11:26:43.561Z,7.80
2019-03-08T11:29:19.576Z,7.90
2019-03-08T11:31:49.653Z,7.90
2019-03-08T11:34:19.914Z,7.80
2019-03-08T11:36:55.731Z,7.90
2019-03-08T11:39:41.850Z,7.80
2019-03-08T11:42:12.024Z,7.60
2019-03-08T11:45:00.309Z,7.50
2019-03-08T11:47:30.591Z,7.50
2019-03-08T11:50:03.469Z,7.60
2019-03-08T11:52:39.469Z,7.60
2019-03-08T11:55:25.473Z,7.60
2019-03-08T11:58:11.912Z,7.80
2019-03-08T12:00:58.644Z,7.90
2019-03-08T12:03:34.852Z,8.00
2019-03-08T12:06:21.419Z,8.10
2019-03-08T12:08:51.873Z,8.20
2019-03-08T12:11:24.893Z,8.00
2019-03-08T12:14:11.674Z,7.80
2019-03-08T12:16:41.745Z,7.70
2019-03-08T12:19:28.617Z,7.80
2019-03-08T12:21:58.713Z,7.90
2019-03-08T12:24:28.785Z,7.80
2019-03-08T12:27:04.760Z,7.70
2019-03-08T12:29:36.145Z,7.80
2019-03-08T12:32:18.425Z,7.90
2019-03-08T12:34:53.993Z,7.80
2019-03-08T12:37:26.821Z,7.50
2019-03-08T12:40:00.041Z,7.50
2019-03-08T12:42:36.054Z,7.60
2019-03-08T12:45:20.458Z,7.70
2019-03-08T12:47:56.265Z,7.70
2019-03-08T12:50:26.345Z,7.90
2019-03-08T12:53:05.335Z,7.90
2019-03-08T12:55:35.395Z,8.10
2019-03-08T12:58:05.485Z,8.10
2019-03-08T13:00:47.367Z,8.00
2019-03-08T13:03:20.356Z,8.10
2019-03-08T13:06:02.413Z,8.20
2019-03-08T13:08:38.369Z,8.10
2019-03-08T13:11:06.791Z,8.00
2019-03-08T13:13:35.235Z,8.10
2019-03-08T13:16:03.856Z,8.20
2019-03-08T13:18:32.362Z,8.30
2019-03-08T13:21:00.818Z,8.20
2019-03-08T13:23:29.328Z,8.00
2019-03-08T13:25:57.821Z,8.00
2019-03-08T13:28:26.258Z,7.80
2019-03-08T13:30:54.684Z,7.70
2019-03-08T13:33:23.196Z,7.60
2019-03-08T13:35:51.694Z,7.50
2019-03-08T13:38:20.183Z,7.50
2019-03-08T13:40:48.620Z,7.50
2019-03-08T13:43:17.109Z,7.50
2019-03-08T13:45:45.548Z,7.60
2019-03-08T13:48:14.138Z,7.60
2019-03-08T13:50:42.589Z,7.60
2019-03-08T13:53:11.021Z,7.70
2019-03-08T13:55:39.516Z,7.90
2019-03-08T13:58:07.942Z,8.10
2019-03-08T14:00:38.549Z,8.20
2019-03-08T14:03:06.972Z,8.20
2019-03-08T14:05:35.418Z,8.00
2019-03-08T14:08:03.845Z,8.00
2019-03-08T14:10:32.273Z,8.10
2019-03-08T14:13:00.745Z,8.10
2019-03-08T14:15:29.253Z,7.90
2019-03-08T14:17:57.703Z,8.00
2019-03-08T14:20:27.635Z,8.10
2019-03-08T14:22:56.052Z,8.00
2019-03-08T14:25:24.477Z,8.00
2019-03-08T14:27:53.388Z,8.10
2019-03-08T14:30:27.076Z,8.10
2019-03-08T14:32:58.045Z,8.10
2019-03-08T14:35:26.100Z,8.10
2019-03-08T14:37:57.020Z,8.10
2019-03-08T14:40:36.265Z,8.10
2019-03-08T14:43:22.797Z,8.00
2019-03-08T14:45:52.871Z,7.80
2019-03-08T14:48:21.365Z,7.80
2019-03-08T14:50:49.825Z,7.80
2019-03-08T14:53:18.307Z,7.70
2019-03-08T14:55:47.657Z,7.70
2019-03-08T14:58:16.093Z,7.60
2019-03-08T15:00:44.512Z,7.40
2019-03-08T15:03:13.024Z,7.40
2019-03-08T15:05:41.449Z,7.60
2019-03-08T15:08:13.600Z,7.70
2019-03-08T15:10:43.573Z,7.70
2019-03-08T15:13:10.387Z,7.70
2019-03-08T15:15:38.919Z,7.70
2019-03-08T15:18:07.529Z,7.50
2019-03-08T15:20:37.765Z,7.50
2019-03-08T15:23:06.156Z,7.50
2019-03-08T15:25:34.589Z,7.70
2019-03-08T15:28:03.032Z,7.80
2019-03-08T15:30:31.566Z,7.90
2019-03-08T15:33:00.547Z,7.80
2019-03-08T15:35:28.965Z,7.80
2019-03-08T15:37:57.520Z,7.90
2019-03-08T15:40:26.002Z,7.80
2019-03-08T15:42:54.595Z,7.60
2019-03-08T15:45:23.084Z,7.70
2019-03-08T15:47:51.579Z,7.70
2019-03-08T15:50:21.589Z,7.70
2019-03-08T15:52:51.458Z,7.70
2019-03-08T15:55:20.129Z,7.70
2019-03-08T15:57:48.569Z,7.80
2019-03-08T16:00:21.975Z,7.80
2019-03-08T16:02:50.860Z,7.80
2019-03-08T16:05:23.804Z,7.80
2019-03-08T16:07:50.944Z,7.80
2019-03-08T16:10:21.218Z,7.70
2019-03-08T16:12:50.456Z,7.70
2019-03-08T16:15:19.178Z,7.70
2019-03-08T16:17:47.727Z,7.60
2019-03-08T16:20:18.365Z,7.60
2019-03-08T16:22:47.066Z,7.70
2019-03-08T16:25:16.656Z,7.60
2019-03-08T16:27:46.907Z,7.70
2019-03-08T16:30:51.336Z,7.60
2019-03-08T16:33:30.168Z,7.50
2019-03-08T16:36:03.713Z,7.50
2019-03-08T16:38:33.656Z,7.40
2019-03-08T16:41:04.068Z,7.40
2019-03-08T16:43:36.680Z,7.40
2019-03-08T16:46:09.309Z,7.40
2019-03-08T16:48:44.166Z,7.40
2019-03-08T16:51:34.098Z,7.30
2019-03-08T16:54:19.879Z,7.40
2019-03-08T16:56:52.639Z,7.40
2019-03-08T16:59:25.668Z,7.40
2019-03-08T17:02:12.177Z,7.40
2019-03-08T17:04:47.761Z,7.30
2019-03-08T17:07:20.727Z,7.20
2019-03-08T17:09:53.746Z,7.20
2019-03-08T17:12:26.464Z,7.20
2019-03-08T17:14:58.030Z,7.20
2019-03-08T17:17:28.163Z,7.10
2019-03-08T17:20:13.549Z,7.20
2019-03-08T17:22:46.053Z,7.10
2019-03-08T17:25:16.134Z,7.10
2019-03-08T17:27:48.934Z,7.10
2019-03-08T17:30:28.356Z,7.10
2019-03-08T17:32:58.420Z,7.10
2019-03-08T17:35:44.796Z,7.10
2019-03-08T17:38:31.358Z,7.10
2019-03-08T17:41:04.807Z,7.10
2019-03-08T17:43:40.838Z,7.00
2019-03-08T17:46:27.293Z,7.00
2019-03-08T17:49:00.612Z,6.90
2019-03-08T17:52:05.040Z,6.90
2019-03-08T17:54:51.401Z,6.90
2019-03-08T17:57:36.728Z,6.90
2019-03-08T18:00:15.345Z,6.90
2019-03-08T18:02:54.533Z,6.90
2019-03-08T18:05:27.302Z,6.90
2019-03-08T18:08:00.142Z,6.90
2019-03-08T18:10:46.858Z,6.90
2019-03-08T18:13:18.313Z,6.90
2019-03-08T18:15:51.297Z,7.00
2019-03-08T18:18:37.525Z,7.00
2019-03-08T18:21:16.677Z,6.90
2019-03-08T18:23:46.834Z,6.90
2019-03-08T18:26:19.672Z,6.90
2019-03-08T18:29:04.709Z,7.00
2019-03-08T18:31:50.921Z,7.00
2019-03-08T18:34:24.067Z,7.00
2019-03-08T18:36:56.817Z,6.90
2019-03-08T18:39:44.922Z,6.80
2019-03-08T18:42:18.056Z,6.90
2019-03-08T18:44:50.706Z,7.00
2019-03-08T18:47:26.695Z,7.00
2019-03-08T18:49:58.367Z,7.10
2019-03-08T18:52:37.360Z,7.20
2019-03-08T18:55:25.268Z,7.30
2019-03-08T18:57:57.773Z,7.20
2019-03-08T19:00:44.258Z,7.20
2019-03-08T19:03:15.624Z,7.30
2019-03-08T19:05:45.758Z,7.60
2019-03-08T19:08:22.522Z,7.90
2019-03-08T19:10:59.653Z,8.40
2019-03-08T19:13:46.010Z,8.80
2019-03-08T19:16:18.846Z,8.60
2019-03-08T19:19:05.304Z,9.20
2019-03-08T19:21:41.059Z,9.30
2019-03-08T19:24:14.081Z,8.90
2019-03-08T19:26:48.153Z,8.70
2019-03-08T19:29:34.881Z,8.90
2019-03-08T19:32:21.065Z,9.10
2019-03-08T19:34:51.147Z,9.10
2019-03-08T19:37:21.225Z,9.30
2019-03-08T19:40:06.913Z,9.20
2019-03-08T19:42:39.695Z,8.40
2019-03-08T19:45:23.944Z,7.80
2019-03-08T19:47:56.693Z,7.70
2019-03-08T19:50:29.752Z,7.50
2019-03-08T19:52:59.823Z,7.40
2019-03-08T19:55:29.894Z,7.40
2019-03-08T19:58:00.344Z,7.30
2019-03-08T20:00:36.278Z,7.30
2019-03-08T20:03:21.988Z,7.40
2019-03-08T20:06:10.022Z,7.30
2019-03-08T20:08:40.108Z,7.30
2019-03-08T20:11:13.201Z,7.20
2019-03-08T20:13:58.193Z,7.10
2019-03-08T20:16:37.141Z,7.10
2019-03-08T20:19:10.154Z,7.10
2019-03-08T20:21:40.255Z,6.90
2019-03-08T20:24:16.009Z,7.00
2019-03-08T20:26:49.017Z,7.10
2019-03-08T20:29:28.117Z,7.10
2019-03-08T20:31:59.363Z,7.00
2019-03-08T20:34:38.462Z,7.00
2019-03-08T20:37:25.021Z,7.10
2019-03-08T20:40:01.197Z,7.10
2019-03-08T20:42:40.302Z,7.00
2019-03-08T20:45:17.769Z,7.00
2019-03-08T20:47:46.584Z,7.10
2019-03-08T20:50:15.006Z,7.00
2019-03-08T20:52:43.441Z,7.10
2019-03-08T20:55:14.511Z,7.10
2019-03-08T20:57:42.941Z,7.00
2019-03-08T21:00:17.661Z,6.90
2019-03-08T21:02:46.172Z,7.00
2019-03-08T21:05:15.029Z,7.00
2019-03-08T21:07:43.475Z,6.90
2019-03-08T21:10:13.636Z,6.90
2019-03-08T21:12:42.066Z,7.00
2019-03-08T21:15:13.517Z,7.00
2019-03-08T21:17:41.961Z,7.00
2019-03-08T21:20:34.156Z,7.00
2019-03-08T21:23:02.674Z,7.00
2019-03-08T21:25:31.105Z,7.10
2019-03-08T21:27:59.609Z,7.10
2019-03-08T21:30:28.034Z,7.00
2019-03-08T21:32:56.477Z,7.00
2019-03-08T21:35:24.894Z,7.00
2019-03-08T21:37:53.339Z,6.90
2019-03-08T21:40:21.756Z,6.90
2019-03-08T21:42:50.190Z,7.00
2019-03-08T21:45:18.614Z,6.90
2019-03-08T21:47:47.265Z,6.90
2019-03-08T21:50:17.814Z,6.90
2019-03-08T21:52:46.258Z,6.90
2019-03-08T21:55:14.687Z,6.90
2019-03-08T21:57:43.125Z,6.90
2019-03-08T22:00:17.220Z,7.00
2019-03-08T22:02:45.732Z,7.00
2019-03-08T22:05:16.391Z,6.90
2019-03-08T22:07:44.821Z,6.90
2019-03-08T22:10:24.550Z,7.00
2019-03-08T22:12:53.461Z,7.10
2019-03-08T22:15:21.913Z,7.10
2019-03-08T22:17:50.350Z,7.10
2019-03-08T22:20:18.804Z,7.10
2019-03-08T22:22:47.314Z,7.10
2019-03-08T22:25:15.759Z,7.10
2019-03-08T22:27:44.192Z,7.00
2019-03-08T22:30:15.774Z,7.00
2019-03-08T22:32:44.209Z,7.00
2019-03-08T22:35:12.925Z,6.90
2019-03-08T22:37:41.353Z,6.90
2019-03-08T22:40:10.805Z,6.90
2019-03-08T22:42:39.986Z,6.90
2019-03-08T22:45:11.580Z,6.90
2019-03-08T22:47:40.000Z,6.90
2019-03-08T22:50:11.541Z,7.00
2019-03-08T22:52:40.449Z,6.90
2019-03-08T22:55:11.570Z,6.90
2019-03-08T22:57:40.028Z,6.80
2019-03-08T23:00:25.270Z,6.80
2019-03-08T23:02:53.969Z,6.90
2019-03-08T23:05:22.400Z,6.90
2019-03-08T23:07:50.848Z,6.90
2019-03-08T23:10:19.330Z,6.90
2019-03-08T23:12:47.750Z,6.90
2019-03-08T23:15:16.506Z,6.80
2019-03-08T23:17:44.953Z,6.90
2019-03-08T23:20:14.478Z,7.00
2019-03-08T23:22:42.898Z,7.00
2019-03-08T23:25:11.332Z,7.00
2019-03-08T23:27:41.401Z,7.00
2019-03-08T23:30:12.466Z,6.90
2019-03-08T23:32:42.163Z,6.90
2019-03-08T23:35:10.930Z,7.00
2019-03-08T23:37:39.425Z,7.00
2019-03-08T23:40:08.847Z,7.00
2019-03-08T23:42:37.333Z,6.90
2019-03-08T23:45:08.605Z,6.90
2019-03-08T23:47:37.033Z,6.90
2019-03-08T23:50:08.762Z,6.90
2019-03-08T23:52:37.202Z,7.00
2019-03-08T23:55:08.708Z,7.00
2019-03-08T23:57:37.128Z,7.00
